sensor_id;sensor_type;location;lat;lon;timestamp;temperature;humidity
65058;HTU21D;51644;51.068;5.860;2023-06-22T00:00:50;24.41;48.46
65058;HTU21D;51644;51.068;5.860;2023-06-22T00:01:49;24.41;48.44
65058;HTU21D;51644;51.068;5.860;2023-06-22T00:02:48;24.40;48.72
65058;HTU21D;51644;51.068;5.860;2023-06-22T00:03:46;24.38;48.55
65058;HTU21D;51644;51.068;5.860;2023-06-22T00:04:45;24.36;48.37
65058;HTU21D;51644;51.068;5.860;2023-06-22T00:05:47;24.33;48.28
65058;HTU21D;51644;51.068;5.860;2023-06-22T00:06:49;24.32;48.43
65058;HTU21D;51644;51.068;5.860;2023-06-22T00:07:47;24.30;48.65
65058;HTU21D;51644;51.068;5.860;2023-06-22T00:08:46;24.29;49.05
65058;HTU21D;51644;51.068;5.860;2023-06-22T00:09:45;24.24;49.12
65058;HTU21D;51644;51.068;5.860;2023-06-22T00:10:44;24.21;48.89
65058;HTU21D;51644;51.068;5.860;2023-06-22T00:11:43;24.21;48.76
65058;HTU21D;51644;51.068;5.860;2023-06-22T00:12:42;24.20;48.75
65058;HTU21D;51644;51.068;5.860;2023-06-22T00:13:40;24.17;48.63
65058;HTU21D;51644;51.068;5.860;2023-06-22T00:14:39;24.17;48.47
65058;HTU21D;51644;51.068;5.860;2023-06-22T00:15:40;24.17;48.57
65058;HTU21D;51644;51.068;5.860;2023-06-22T00:16:38;24.15;48.88
65058;HTU21D;51644;51.068;5.860;2023-06-22T00:17:37;24.13;49.05
65058;HTU21D;51644;51.068;5.860;2023-06-22T00:18:35;24.11;49.23
65058;HTU21D;51644;51.068;5.860;2023-06-22T00:19:34;24.08;49.35
65058;HTU21D;51644;51.068;5.860;2023-06-22T00:20:34;24.06;49.56
65058;HTU21D;51644;51.068;5.860;2023-06-22T00:21:36;24.03;49.60
65058;HTU21D;51644;51.068;5.860;2023-06-22T00:22:35;24.04;49.48
65058;HTU21D;51644;51.068;5.860;2023-06-22T00:23:36;24.03;49.31
65058;HTU21D;51644;51.068;5.860;2023-06-22T00:24:35;24.03;49.35
65058;HTU21D;51644;51.068;5.860;2023-06-22T00:25:37;24.04;49.36
65058;HTU21D;51644;51.068;5.860;2023-06-22T00:26:38;24.03;49.11
65058;HTU21D;51644;51.068;5.860;2023-06-22T00:27:39;24.04;49.01
65058;HTU21D;51644;51.068;5.860;2023-06-22T00:28:39;24.04;49.25
65058;HTU21D;51644;51.068;5.860;2023-06-22T00:29:37;24.04;49.31
65058;HTU21D;51644;51.068;5.860;2023-06-22T00:30:36;24.03;49.20
65058;HTU21D;51644;51.068;5.860;2023-06-22T00:31:34;24.02;49.11
65058;HTU21D;51644;51.068;5.860;2023-06-22T00:32:33;24.03;49.11
65058;HTU21D;51644;51.068;5.860;2023-06-22T00:33:32;24.04;48.90
65058;HTU21D;51644;51.068;5.860;2023-06-22T00:34:30;24.05;48.88
65058;HTU21D;51644;51.068;5.860;2023-06-22T00:35:32;24.04;49.03
65058;HTU21D;51644;51.068;5.860;2023-06-22T00:36:30;24.06;49.15
65058;HTU21D;51644;51.068;5.860;2023-06-22T00:37:29;24.05;49.18
65058;HTU21D;51644;51.068;5.860;2023-06-22T00:38:28;24.08;49.28
65058;HTU21D;51644;51.068;5.860;2023-06-22T00:39:26;24.06;49.38
65058;HTU21D;51644;51.068;5.860;2023-06-22T00:40:25;24.06;49.10
65058;HTU21D;51644;51.068;5.860;2023-06-22T00:41:24;24.08;49.02
65058;HTU21D;51644;51.068;5.860;2023-06-22T00:42:22;24.06;49.00
65058;HTU21D;51644;51.068;5.860;2023-06-22T00:43:21;24.04;49.02
65058;HTU21D;51644;51.068;5.860;2023-06-22T00:44:20;24.06;48.97
65058;HTU21D;51644;51.068;5.860;2023-06-22T00:45:18;24.04;48.93
65058;HTU21D;51644;51.068;5.860;2023-06-22T00:46:17;24.05;49.01
65058;HTU21D;51644;51.068;5.860;2023-06-22T00:47:17;24.05;49.11
65058;HTU21D;51644;51.068;5.860;2023-06-22T00:48:16;24.04;49.22
65058;HTU21D;51644;51.068;5.860;2023-06-22T00:49:15;24.05;49.14
65058;HTU21D;51644;51.068;5.860;2023-06-22T00:50:20;24.04;49.37
65058;HTU21D;51644;51.068;5.860;2023-06-22T00:51:19;24.05;49.55
65058;HTU21D;51644;51.068;5.860;2023-06-22T00:52:23;24.03;49.68
65058;HTU21D;51644;51.068;5.860;2023-06-22T00:53:25;24.02;49.70
65058;HTU21D;51644;51.068;5.860;2023-06-22T00:54:24;24.02;49.76
65058;HTU21D;51644;51.068;5.860;2023-06-22T00:55:24;24.00;49.85
65058;HTU21D;51644;51.068;5.860;2023-06-22T00:56:24;24.01;49.82
65058;HTU21D;51644;51.068;5.860;2023-06-22T00:57:25;24.00;49.95
65058;HTU21D;51644;51.068;5.860;2023-06-22T00:58:27;23.99;50.05
65058;HTU21D;51644;51.068;5.860;2023-06-22T00:59:27;24.00;49.92
65058;HTU21D;51644;51.068;5.860;2023-06-22T01:00:26;23.99;49.90
65058;HTU21D;51644;51.068;5.860;2023-06-22T01:01:25;23.99;49.89
65058;HTU21D;51644;51.068;5.860;2023-06-22T01:02:24;24.00;49.85
65058;HTU21D;51644;51.068;5.860;2023-06-22T01:03:24;23.98;50.04
65058;HTU21D;51644;51.068;5.860;2023-06-22T01:04:34;23.97;50.23
65058;HTU21D;51644;51.068;5.860;2023-06-22T01:05:33;23.96;50.27
65058;HTU21D;51644;51.068;5.860;2023-06-22T01:06:41;23.96;50.50
65058;HTU21D;51644;51.068;5.860;2023-06-22T01:09:15;23.98;50.38
65058;HTU21D;51644;51.068;5.860;2023-06-22T01:10:32;23.99;50.34
65058;HTU21D;51644;51.068;5.860;2023-06-22T01:11:40;23.99;50.51
65058;HTU21D;51644;51.068;5.860;2023-06-22T01:12:45;23.98;50.68
65058;HTU21D;51644;51.068;5.860;2023-06-22T01:13:52;23.99;50.83
65058;HTU21D;51644;51.068;5.860;2023-06-22T01:15:16;23.96;50.95
65058;HTU21D;51644;51.068;5.860;2023-06-22T01:16:25;23.97;50.90
65058;HTU21D;51644;51.068;5.860;2023-06-22T01:17:29;23.96;50.93
65058;HTU21D;51644;51.068;5.860;2023-06-22T01:18:31;23.96;51.05
65058;HTU21D;51644;51.068;5.860;2023-06-22T01:19:48;23.96;51.06
65058;HTU21D;51644;51.068;5.860;2023-06-22T01:20:55;23.95;51.36
65058;HTU21D;51644;51.068;5.860;2023-06-22T01:21:58;23.91;51.57
65058;HTU21D;51644;51.068;5.860;2023-06-22T01:24:33;23.90;52.04
65058;HTU21D;51644;51.068;5.860;2023-06-22T01:26:02;23.89;52.19
65058;HTU21D;51644;51.068;5.860;2023-06-22T01:27:28;23.87;52.24
65058;HTU21D;51644;51.068;5.860;2023-06-22T01:28:51;23.85;52.44
65058;HTU21D;51644;51.068;5.860;2023-06-22T01:29:56;23.86;52.66
65058;HTU21D;51644;51.068;5.860;2023-06-22T01:31:08;23.82;52.84
65058;HTU21D;51644;51.068;5.860;2023-06-22T01:32:13;23.82;52.96
65058;HTU21D;51644;51.068;5.860;2023-06-22T01:33:13;23.80;53.05
65058;HTU21D;51644;51.068;5.860;2023-06-22T01:34:14;23.80;53.11
65058;HTU21D;51644;51.068;5.860;2023-06-22T01:35:15;23.79;53.23
65058;HTU21D;51644;51.068;5.860;2023-06-22T01:36:16;23.77;53.37
65058;HTU21D;51644;51.068;5.860;2023-06-22T01:37:18;23.77;53.49
65058;HTU21D;51644;51.068;5.860;2023-06-22T01:38:17;23.75;53.62
65058;HTU21D;51644;51.068;5.860;2023-06-22T01:39:17;23.74;53.74
65058;HTU21D;51644;51.068;5.860;2023-06-22T01:40:18;23.73;53.89
65058;HTU21D;51644;51.068;5.860;2023-06-22T01:41:19;23.72;54.01
65058;HTU21D;51644;51.068;5.860;2023-06-22T01:42:19;23.70;54.18
65058;HTU21D;51644;51.068;5.860;2023-06-22T01:43:21;23.67;54.41
65058;HTU21D;51644;51.068;5.860;2023-06-22T01:44:21;23.62;54.57
65058;HTU21D;51644;51.068;5.860;2023-06-22T01:45:23;23.60;54.72
65058;HTU21D;51644;51.068;5.860;2023-06-22T01:46:23;23.59;54.86
65058;HTU21D;51644;51.068;5.860;2023-06-22T01:47:24;23.58;55.04
65058;HTU21D;51644;51.068;5.860;2023-06-22T01:48:23;23.58;55.23
65058;HTU21D;51644;51.068;5.860;2023-06-22T01:49:25;23.57;55.33
65058;HTU21D;51644;51.068;5.860;2023-06-22T01:50:24;23.56;55.47
65058;HTU21D;51644;51.068;5.860;2023-06-22T01:51:23;23.56;55.61
65058;HTU21D;51644;51.068;5.860;2023-06-22T01:52:22;23.55;55.73
65058;HTU21D;51644;51.068;5.860;2023-06-22T01:53:22;23.55;55.76
65058;HTU21D;51644;51.068;5.860;2023-06-22T01:54:23;23.54;55.94
65058;HTU21D;51644;51.068;5.860;2023-06-22T01:55:23;23.53;56.03
65058;HTU21D;51644;51.068;5.860;2023-06-22T01:56:22;23.55;56.07
65058;HTU21D;51644;51.068;5.860;2023-06-22T01:57:20;23.51;56.13
65058;HTU21D;51644;51.068;5.860;2023-06-22T01:58:21;23.50;56.34
65058;HTU21D;51644;51.068;5.860;2023-06-22T01:59:34;23.50;56.45
65058;HTU21D;51644;51.068;5.860;2023-06-22T02:00:37;23.50;56.53
65058;HTU21D;51644;51.068;5.860;2023-06-22T02:01:44;23.46;56.64
65058;HTU21D;51644;51.068;5.860;2023-06-22T02:04:03;23.46;56.78
65058;HTU21D;51644;51.068;5.860;2023-06-22T02:05:07;23.49;56.84
65058;HTU21D;51644;51.068;5.860;2023-06-22T02:06:25;23.49;56.93
65058;HTU21D;51644;51.068;5.860;2023-06-22T02:07:31;23.50;56.98
65058;HTU21D;51644;51.068;5.860;2023-06-22T02:08:40;23.47;57.10
65058;HTU21D;51644;51.068;5.860;2023-06-22T02:09:44;23.44;57.28
65058;HTU21D;51644;51.068;5.860;2023-06-22T02:10:46;23.45;57.32
65058;HTU21D;51644;51.068;5.860;2023-06-22T02:11:47;23.44;57.44
65058;HTU21D;51644;51.068;5.860;2023-06-22T02:12:51;23.44;57.48
65058;HTU21D;51644;51.068;5.860;2023-06-22T02:13:51;23.43;57.53
65058;HTU21D;51644;51.068;5.860;2023-06-22T02:14:51;23.44;57.56
65058;HTU21D;51644;51.068;5.860;2023-06-22T02:15:51;23.42;57.65
65058;HTU21D;51644;51.068;5.860;2023-06-22T02:16:51;23.41;57.77
65058;HTU21D;51644;51.068;5.860;2023-06-22T02:17:50;23.42;57.86
65058;HTU21D;51644;51.068;5.860;2023-06-22T02:18:50;23.43;57.86
65058;HTU21D;51644;51.068;5.860;2023-06-22T02:19:51;23.43;57.83
65058;HTU21D;51644;51.068;5.860;2023-06-22T02:20:50;23.45;57.90
65058;HTU21D;51644;51.068;5.860;2023-06-22T02:21:48;23.44;57.95
65058;HTU21D;51644;51.068;5.860;2023-06-22T02:22:47;23.45;57.96
65058;HTU21D;51644;51.068;5.860;2023-06-22T02:23:46;23.45;58.03
65058;HTU21D;51644;51.068;5.860;2023-06-22T02:24:47;23.45;58.05
65058;HTU21D;51644;51.068;5.860;2023-06-22T02:25:45;23.44;58.16
65058;HTU21D;51644;51.068;5.860;2023-06-22T02:26:44;23.44;58.09
65058;HTU21D;51644;51.068;5.860;2023-06-22T02:27:43;23.43;58.19
65058;HTU21D;51644;51.068;5.860;2023-06-22T02:28:42;23.40;58.35
65058;HTU21D;51644;51.068;5.860;2023-06-22T02:29:41;23.41;58.38
65058;HTU21D;51644;51.068;5.860;2023-06-22T02:30:41;23.39;58.41
65058;HTU21D;51644;51.068;5.860;2023-06-22T02:31:40;23.38;58.51
65058;HTU21D;51644;51.068;5.860;2023-06-22T02:32:42;23.38;58.56
65058;HTU21D;51644;51.068;5.860;2023-06-22T02:33:41;23.38;58.63
65058;HTU21D;51644;51.068;5.860;2023-06-22T02:34:40;23.39;58.64
65058;HTU21D;51644;51.068;5.860;2023-06-22T02:35:39;23.40;58.67
65058;HTU21D;51644;51.068;5.860;2023-06-22T02:36:38;23.37;58.77
65058;HTU21D;51644;51.068;5.860;2023-06-22T02:37:37;23.38;58.80
65058;HTU21D;51644;51.068;5.860;2023-06-22T02:38:42;23.36;58.85
65058;HTU21D;51644;51.068;5.860;2023-06-22T02:39:46;23.34;59.01
65058;HTU21D;51644;51.068;5.860;2023-06-22T02:40:45;23.34;59.12
65058;HTU21D;51644;51.068;5.860;2023-06-22T02:41:44;23.32;59.19
65058;HTU21D;51644;51.068;5.860;2023-06-22T02:42:42;23.29;59.27
65058;HTU21D;51644;51.068;5.860;2023-06-22T02:43:41;23.29;59.41
65058;HTU21D;51644;51.068;5.860;2023-06-22T02:44:40;23.29;59.38
65058;HTU21D;51644;51.068;5.860;2023-06-22T02:45:41;23.30;59.40
65058;HTU21D;51644;51.068;5.860;2023-06-22T02:46:44;23.28;59.47
65058;HTU21D;51644;51.068;5.860;2023-06-22T02:47:43;23.26;59.62
65058;HTU21D;51644;51.068;5.860;2023-06-22T02:48:41;23.24;59.68
65058;HTU21D;51644;51.068;5.860;2023-06-22T02:49:40;23.22;59.73
65058;HTU21D;51644;51.068;5.860;2023-06-22T02:50:40;23.20;59.94
65058;HTU21D;51644;51.068;5.860;2023-06-22T02:51:46;23.16;60.07
65058;HTU21D;51644;51.068;5.860;2023-06-22T02:52:46;23.14;60.20
65058;HTU21D;51644;51.068;5.860;2023-06-22T02:53:45;23.13;60.36
65058;HTU21D;51644;51.068;5.860;2023-06-22T02:54:45;23.12;60.38
65058;HTU21D;51644;51.068;5.860;2023-06-22T02:55:45;23.11;60.44
65058;HTU21D;51644;51.068;5.860;2023-06-22T02:56:56;23.11;60.44
65058;HTU21D;51644;51.068;5.860;2023-06-22T02:57:55;23.08;60.60
65058;HTU21D;51644;51.068;5.860;2023-06-22T02:58:57;23.07;60.76
65058;HTU21D;51644;51.068;5.860;2023-06-22T03:00:10;23.05;60.82
65058;HTU21D;51644;51.068;5.860;2023-06-22T03:01:17;23.02;60.96
65058;HTU21D;51644;51.068;5.860;2023-06-22T03:02:21;23.00;61.05
65058;HTU21D;51644;51.068;5.860;2023-06-22T03:03:20;23.01;61.12
65058;HTU21D;51644;51.068;5.860;2023-06-22T03:04:19;23.00;61.13
65058;HTU21D;51644;51.068;5.860;2023-06-22T03:05:18;22.99;61.22
65058;HTU21D;51644;51.068;5.860;2023-06-22T03:06:17;22.99;61.31
65058;HTU21D;51644;51.068;5.860;2023-06-22T03:07:22;22.99;61.41
65058;HTU21D;51644;51.068;5.860;2023-06-22T03:08:22;22.98;61.42
65058;HTU21D;51644;51.068;5.860;2023-06-22T03:09:21;22.98;61.50
65058;HTU21D;51644;51.068;5.860;2023-06-22T03:10:20;22.95;61.58
65058;HTU21D;51644;51.068;5.860;2023-06-22T03:11:19;22.94;61.65
65058;HTU21D;51644;51.068;5.860;2023-06-22T03:12:17;22.93;61.73
65058;HTU21D;51644;51.068;5.860;2023-06-22T03:13:27;22.95;61.78
65058;HTU21D;51644;51.068;5.860;2023-06-22T03:14:26;22.95;61.78
65058;HTU21D;51644;51.068;5.860;2023-06-22T03:15:25;22.93;61.81
65058;HTU21D;51644;51.068;5.860;2023-06-22T03:16:24;22.92;61.85
65058;HTU21D;51644;51.068;5.860;2023-06-22T03:17:25;22.93;61.83
65058;HTU21D;51644;51.068;5.860;2023-06-22T03:18:23;22.92;61.83
65058;HTU21D;51644;51.068;5.860;2023-06-22T03:19:22;22.92;61.83
65058;HTU21D;51644;51.068;5.860;2023-06-22T03:20:21;22.93;61.88
65058;HTU21D;51644;51.068;5.860;2023-06-22T03:21:21;22.91;61.86
65058;HTU21D;51644;51.068;5.860;2023-06-22T03:22:20;22.92;61.94
65058;HTU21D;51644;51.068;5.860;2023-06-22T03:23:18;22.91;61.99
65058;HTU21D;51644;51.068;5.860;2023-06-22T03:24:17;22.90;62.08
65058;HTU21D;51644;51.068;5.860;2023-06-22T03:25:16;22.90;62.15
65058;HTU21D;51644;51.068;5.860;2023-06-22T03:26:18;22.88;62.18
65058;HTU21D;51644;51.068;5.860;2023-06-22T03:27:17;22.90;62.21
65058;HTU21D;51644;51.068;5.860;2023-06-22T03:28:16;22.90;62.17
65058;HTU21D;51644;51.068;5.860;2023-06-22T03:29:16;22.88;62.28
65058;HTU21D;51644;51.068;5.860;2023-06-22T03:30:15;22.87;62.33
65058;HTU21D;51644;51.068;5.860;2023-06-22T03:31:14;22.87;62.37
65058;HTU21D;51644;51.068;5.860;2023-06-22T03:32:13;22.90;62.42
65058;HTU21D;51644;51.068;5.860;2023-06-22T03:33:11;22.90;62.46
65058;HTU21D;51644;51.068;5.860;2023-06-22T03:34:10;22.88;62.57
65058;HTU21D;51644;51.068;5.860;2023-06-22T03:35:09;22.90;62.63
65058;HTU21D;51644;51.068;5.860;2023-06-22T03:36:09;22.91;62.62
65058;HTU21D;51644;51.068;5.860;2023-06-22T03:37:08;22.90;62.72
65058;HTU21D;51644;51.068;5.860;2023-06-22T03:38:07;22.92;62.71
65058;HTU21D;51644;51.068;5.860;2023-06-22T03:39:05;22.94;62.72
65058;HTU21D;51644;51.068;5.860;2023-06-22T03:40:04;22.93;62.72
65058;HTU21D;51644;51.068;5.860;2023-06-22T03:41:04;22.96;62.83
65058;HTU21D;51644;51.068;5.860;2023-06-22T03:42:03;22.96;62.81
65058;HTU21D;51644;51.068;5.860;2023-06-22T03:43:01;22.99;62.67
65058;HTU21D;51644;51.068;5.860;2023-06-22T03:44:02;22.98;62.67
65058;HTU21D;51644;51.068;5.860;2023-06-22T03:45:00;22.98;62.70
65058;HTU21D;51644;51.068;5.860;2023-06-22T03:46:00;22.97;62.79
65058;HTU21D;51644;51.068;5.860;2023-06-22T03:46:58;23.00;62.73
65058;HTU21D;51644;51.068;5.860;2023-06-22T03:48:00;23.00;62.78
65058;HTU21D;51644;51.068;5.860;2023-06-22T03:48:59;23.01;62.77
65058;HTU21D;51644;51.068;5.860;2023-06-22T03:49:57;23.00;62.66
65058;HTU21D;51644;51.068;5.860;2023-06-22T03:50:56;23.03;62.73
65058;HTU21D;51644;51.068;5.860;2023-06-22T03:51:54;23.03;62.69
65058;HTU21D;51644;51.068;5.860;2023-06-22T03:52:53;23.02;62.67
65058;HTU21D;51644;51.068;5.860;2023-06-22T03:53:52;23.02;62.65
65058;HTU21D;51644;51.068;5.860;2023-06-22T03:54:50;23.03;62.65
65058;HTU21D;51644;51.068;5.860;2023-06-22T03:55:50;23.05;62.60
65058;HTU21D;51644;51.068;5.860;2023-06-22T03:56:49;23.03;62.62
65058;HTU21D;51644;51.068;5.860;2023-06-22T03:57:48;23.05;62.62
65058;HTU21D;51644;51.068;5.860;2023-06-22T03:58:46;23.06;62.66
65058;HTU21D;51644;51.068;5.860;2023-06-22T03:59:45;23.08;62.64
65058;HTU21D;51644;51.068;5.860;2023-06-22T04:00:46;23.07;62.58
65058;HTU21D;51644;51.068;5.860;2023-06-22T04:01:45;23.06;62.63
65058;HTU21D;51644;51.068;5.860;2023-06-22T04:02:44;23.08;62.68
65058;HTU21D;51644;51.068;5.860;2023-06-22T04:03:43;23.07;62.70
65058;HTU21D;51644;51.068;5.860;2023-06-22T04:04:42;23.08;62.67
65058;HTU21D;51644;51.068;5.860;2023-06-22T04:05:41;23.08;62.67
65058;HTU21D;51644;51.068;5.860;2023-06-22T04:06:39;23.09;62.73
65058;HTU21D;51644;51.068;5.860;2023-06-22T04:07:38;23.08;62.76
65058;HTU21D;51644;51.068;5.860;2023-06-22T04:08:37;23.08;62.81
65058;HTU21D;51644;51.068;5.860;2023-06-22T04:09:35;23.10;62.92
65058;HTU21D;51644;51.068;5.860;2023-06-22T04:10:34;23.09;62.94
65058;HTU21D;51644;51.068;5.860;2023-06-22T04:11:32;23.12;62.91
65058;HTU21D;51644;51.068;5.860;2023-06-22T04:12:31;23.13;62.81
65058;HTU21D;51644;51.068;5.860;2023-06-22T04:13:30;23.15;62.75
65058;HTU21D;51644;51.068;5.860;2023-06-22T04:14:28;23.16;62.67
65058;HTU21D;51644;51.068;5.860;2023-06-22T04:15:27;23.22;62.55
65058;HTU21D;51644;51.068;5.860;2023-06-22T04:16:26;23.22;62.52
65058;HTU21D;51644;51.068;5.860;2023-06-22T04:17:24;23.22;62.48
65058;HTU21D;51644;51.068;5.860;2023-06-22T04:18:23;23.21;62.51
65058;HTU21D;51644;51.068;5.860;2023-06-22T04:19:22;23.21;62.63
65058;HTU21D;51644;51.068;5.860;2023-06-22T04:20:21;23.20;62.65
65058;HTU21D;51644;51.068;5.860;2023-06-22T04:21:19;23.20;62.68
65058;HTU21D;51644;51.068;5.860;2023-06-22T04:22:18;23.22;62.79
65058;HTU21D;51644;51.068;5.860;2023-06-22T04:23:17;23.23;62.76
65058;HTU21D;51644;51.068;5.860;2023-06-22T04:24:15;23.22;62.73
65058;HTU21D;51644;51.068;5.860;2023-06-22T04:25:14;23.21;62.82
65058;HTU21D;51644;51.068;5.860;2023-06-22T04:26:13;23.21;62.91
65058;HTU21D;51644;51.068;5.860;2023-06-22T04:27:14;23.22;62.92
65058;HTU21D;51644;51.068;5.860;2023-06-22T04:28:13;23.23;62.88
65058;HTU21D;51644;51.068;5.860;2023-06-22T04:29:12;23.24;62.88
65058;HTU21D;51644;51.068;5.860;2023-06-22T04:30:11;23.25;62.95
65058;HTU21D;51644;51.068;5.860;2023-06-22T04:31:14;23.24;63.02
65058;HTU21D;51644;51.068;5.860;2023-06-22T04:32:13;23.26;63.02
65058;HTU21D;51644;51.068;5.860;2023-06-22T04:33:15;23.26;62.98
65058;HTU21D;51644;51.068;5.860;2023-06-22T04:34:13;23.29;62.92
65058;HTU21D;51644;51.068;5.860;2023-06-22T04:35:14;23.30;62.85
65058;HTU21D;51644;51.068;5.860;2023-06-22T04:36:14;23.31;62.76
65058;HTU21D;51644;51.068;5.860;2023-06-22T04:37:13;23.32;62.75
65058;HTU21D;51644;51.068;5.860;2023-06-22T04:38:13;23.32;62.82
65058;HTU21D;51644;51.068;5.860;2023-06-22T04:39:12;23.34;62.79
65058;HTU21D;51644;51.068;5.860;2023-06-22T04:40:11;23.35;62.88
65058;HTU21D;51644;51.068;5.860;2023-06-22T04:41:12;23.37;62.82
65058;HTU21D;51644;51.068;5.860;2023-06-22T04:42:12;23.38;62.79
65058;HTU21D;51644;51.068;5.860;2023-06-22T04:43:11;23.38;62.78
65058;HTU21D;51644;51.068;5.860;2023-06-22T04:44:19;23.41;62.86
65058;HTU21D;51644;51.068;5.860;2023-06-22T04:45:24;23.43;62.68
65058;HTU21D;51644;51.068;5.860;2023-06-22T04:46:22;23.44;62.66
65058;HTU21D;51644;51.068;5.860;2023-06-22T04:47:21;23.44;62.67
65058;HTU21D;51644;51.068;5.860;2023-06-22T04:48:22;23.46;62.68
65058;HTU21D;51644;51.068;5.860;2023-06-22T04:49:21;23.44;62.63
65058;HTU21D;51644;51.068;5.860;2023-06-22T04:50:20;23.44;62.63
65058;HTU21D;51644;51.068;5.860;2023-06-22T04:51:22;23.45;62.70
65058;HTU21D;51644;51.068;5.860;2023-06-22T04:52:21;23.46;62.86
65058;HTU21D;51644;51.068;5.860;2023-06-22T04:53:20;23.46;62.79
65058;HTU21D;51644;51.068;5.860;2023-06-22T04:54:18;23.45;62.78
65058;HTU21D;51644;51.068;5.860;2023-06-22T04:55:18;23.49;62.85
65058;HTU21D;51644;51.068;5.860;2023-06-22T04:56:18;23.49;62.77
65058;HTU21D;51644;51.068;5.860;2023-06-22T04:57:19;23.49;62.75
65058;HTU21D;51644;51.068;5.860;2023-06-22T04:58:18;23.51;62.79
65058;HTU21D;51644;51.068;5.860;2023-06-22T04:59:18;23.52;62.72
65058;HTU21D;51644;51.068;5.860;2023-06-22T05:00:24;23.54;62.76
65058;HTU21D;51644;51.068;5.860;2023-06-22T05:01:23;23.57;62.88
65058;HTU21D;51644;51.068;5.860;2023-06-22T05:02:22;23.58;63.03
65058;HTU21D;51644;51.068;5.860;2023-06-22T05:03:21;23.58;62.94
65058;HTU21D;51644;51.068;5.860;2023-06-22T05:04:24;23.61;62.85
65058;HTU21D;51644;51.068;5.860;2023-06-22T05:05:24;23.64;62.94
65058;HTU21D;51644;51.068;5.860;2023-06-22T05:06:23;23.66;62.98
65058;HTU21D;51644;51.068;5.860;2023-06-22T05:07:25;23.66;63.08
65058;HTU21D;51644;51.068;5.860;2023-06-22T05:08:24;23.68;63.24
65058;HTU21D;51644;51.068;5.860;2023-06-22T05:09:24;23.68;63.18
65058;HTU21D;51644;51.068;5.860;2023-06-22T05:10:23;23.69;63.06
65058;HTU21D;51644;51.068;5.860;2023-06-22T05:11:22;23.71;63.02
65058;HTU21D;51644;51.068;5.860;2023-06-22T05:12:20;23.73;62.79
65058;HTU21D;51644;51.068;5.860;2023-06-22T05:13:19;23.74;62.63
65058;HTU21D;51644;51.068;5.860;2023-06-22T05:14:20;23.75;62.61
65058;HTU21D;51644;51.068;5.860;2023-06-22T05:15:18;23.77;62.73
65058;HTU21D;51644;51.068;5.860;2023-06-22T05:16:18;23.77;62.87
65058;HTU21D;51644;51.068;5.860;2023-06-22T05:17:22;23.76;62.92
65058;HTU21D;51644;51.068;5.860;2023-06-22T05:18:22;23.77;62.68
65058;HTU21D;51644;51.068;5.860;2023-06-22T05:19:21;23.79;62.53
65058;HTU21D;51644;51.068;5.860;2023-06-22T05:20:20;23.79;62.44
65058;HTU21D;51644;51.068;5.860;2023-06-22T05:21:25;23.79;62.34
65058;HTU21D;51644;51.068;5.860;2023-06-22T05:22:23;23.77;62.37
65058;HTU21D;51644;51.068;5.860;2023-06-22T05:23:22;23.79;62.28
65058;HTU21D;51644;51.068;5.860;2023-06-22T05:24:21;23.80;62.20
65058;HTU21D;51644;51.068;5.860;2023-06-22T05:25:20;23.81;62.06
65058;HTU21D;51644;51.068;5.860;2023-06-22T05:26:20;23.83;61.95
65058;HTU21D;51644;51.068;5.860;2023-06-22T05:27:19;23.81;62.02
65058;HTU21D;51644;51.068;5.860;2023-06-22T05:28:18;23.83;62.11
65058;HTU21D;51644;51.068;5.860;2023-06-22T05:29:21;23.82;62.03
65058;HTU21D;51644;51.068;5.860;2023-06-22T05:30:20;23.84;62.05
65058;HTU21D;51644;51.068;5.860;2023-06-22T05:31:19;23.84;62.18
65058;HTU21D;51644;51.068;5.860;2023-06-22T05:32:18;23.84;62.17
65058;HTU21D;51644;51.068;5.860;2023-06-22T05:33:17;23.84;62.32
65058;HTU21D;51644;51.068;5.860;2023-06-22T05:34:16;23.83;62.41
65058;HTU21D;51644;51.068;5.860;2023-06-22T05:35:14;23.84;62.32
65058;HTU21D;51644;51.068;5.860;2023-06-22T05:36:14;23.83;62.27
65058;HTU21D;51644;51.068;5.860;2023-06-22T05:37:13;23.82;62.27
65058;HTU21D;51644;51.068;5.860;2023-06-22T05:38:12;23.81;62.31
65058;HTU21D;51644;51.068;5.860;2023-06-22T05:39:13;23.82;62.21
65058;HTU21D;51644;51.068;5.860;2023-06-22T05:40:12;23.82;62.22
65058;HTU21D;51644;51.068;5.860;2023-06-22T05:41:11;23.84;62.41
65058;HTU21D;51644;51.068;5.860;2023-06-22T05:42:09;23.83;62.45
65058;HTU21D;51644;51.068;5.860;2023-06-22T05:43:08;23.83;62.28
65058;HTU21D;51644;51.068;5.860;2023-06-22T05:44:07;23.86;62.09
65058;HTU21D;51644;51.068;5.860;2023-06-22T05:45:06;23.86;62.21
65058;HTU21D;51644;51.068;5.860;2023-06-22T05:46:05;23.88;62.07
65058;HTU21D;51644;51.068;5.860;2023-06-22T05:47:04;23.86;62.04
65058;HTU21D;51644;51.068;5.860;2023-06-22T05:48:03;23.86;62.04
65058;HTU21D;51644;51.068;5.860;2023-06-22T05:49:01;23.85;62.05
65058;HTU21D;51644;51.068;5.860;2023-06-22T05:50:00;23.83;62.03
65058;HTU21D;51644;51.068;5.860;2023-06-22T05:50:59;23.84;61.89
65058;HTU21D;51644;51.068;5.860;2023-06-22T05:51:58;23.83;61.85
65058;HTU21D;51644;51.068;5.860;2023-06-22T05:52:57;23.81;61.86
65058;HTU21D;51644;51.068;5.860;2023-06-22T05:53:56;23.81;61.92
65058;HTU21D;51644;51.068;5.860;2023-06-22T05:54:55;23.80;61.97
65058;HTU21D;51644;51.068;5.860;2023-06-22T05:55:54;23.81;62.02
65058;HTU21D;51644;51.068;5.860;2023-06-22T05:56:52;23.81;61.94
65058;HTU21D;51644;51.068;5.860;2023-06-22T05:57:51;23.82;61.92
65058;HTU21D;51644;51.068;5.860;2023-06-22T05:58:49;23.81;61.79
65058;HTU21D;51644;51.068;5.860;2023-06-22T05:59:48;23.79;61.89
65058;HTU21D;51644;51.068;5.860;2023-06-22T06:00:47;23.79;61.91
65058;HTU21D;51644;51.068;5.860;2023-06-22T06:01:46;23.77;61.85
65058;HTU21D;51644;51.068;5.860;2023-06-22T06:02:48;23.76;61.90
65058;HTU21D;51644;51.068;5.860;2023-06-22T06:03:47;23.76;62.18
65058;HTU21D;51644;51.068;5.860;2023-06-22T06:04:48;23.74;62.57
65058;HTU21D;51644;51.068;5.860;2023-06-22T06:05:49;23.75;62.96
65058;HTU21D;51644;51.068;5.860;2023-06-22T06:06:48;23.74;63.01
65058;HTU21D;51644;51.068;5.860;2023-06-22T06:07:47;23.73;63.09
65058;HTU21D;51644;51.068;5.860;2023-06-22T06:08:45;23.73;63.40
65058;HTU21D;51644;51.068;5.860;2023-06-22T06:09:44;23.73;63.49
65058;HTU21D;51644;51.068;5.860;2023-06-22T06:10:43;23.73;63.38
65058;HTU21D;51644;51.068;5.860;2023-06-22T06:11:41;23.72;63.51
65058;HTU21D;51644;51.068;5.860;2023-06-22T06:12:40;23.70;63.92
65058;HTU21D;51644;51.068;5.860;2023-06-22T06:13:39;23.67;64.17
65058;HTU21D;51644;51.068;5.860;2023-06-22T06:14:38;23.69;64.34
65058;HTU21D;51644;51.068;5.860;2023-06-22T06:15:37;23.68;64.11
65058;HTU21D;51644;51.068;5.860;2023-06-22T06:16:36;23.67;63.89
65058;HTU21D;51644;51.068;5.860;2023-06-22T06:17:35;23.68;63.76
65058;HTU21D;51644;51.068;5.860;2023-06-22T06:18:34;23.68;63.61
65058;HTU21D;51644;51.068;5.860;2023-06-22T06:19:32;23.69;63.40
65058;HTU21D;51644;51.068;5.860;2023-06-22T06:20:31;23.68;63.28